Time;durP1;ratioP1;P1;durP2;ratioP2;P2;SDS_P1;SDS_P2;PMS_P1;PMS_P2;Temp;Humidity;BMP_temperature;BMP_pressure;BME280_temperature;BME280_humidity;BME280_pressure;Samples;Min_cycle;Max_cycle;Signal;HPM_P1;HPM_P2
2022/01/27 00:01:55;;;;;;;6.57;2.13;;;;;;;;;;5018432;28;20061;-79
2022/01/27 00:04:22;;;;;;;5.28;1.90;;;;;;;;;;5031207;28;20030;-78
2022/01/27 00:06:49;;;;;;;7.10;2.30;;;;;;;;;;5021904;28;20018;-78
2022/01/27 00:09:37;;;;;;;8.05;1.85;;;;;;;;;;5030528;28;20141;-78
2022/01/27 00:12:05;;;;;;;5.03;1.60;;;;;;;;;;5004911;28;20145;-78
2022/01/27 00:14:34;;;;;;;3.10;1.38;;;;;;;;;;5010762;28;20501;-79
2022/01/27 00:17:12;;;;;;;8.20;1.73;;;;;;;;;;5015018;28;20026;-79
2022/01/27 00:19:46;;;;;;;10.20;2.13;;;;;;;;;;5032962;28;20025;-79
2022/01/27 00:22:13;;;;;;;5.28;1.90;;;;;;;;;;5013931;28;20045;-75
2022/01/27 00:24:39;;;;;;;5.88;1.75;;;;;;;;;;5016862;28;20025;-77
2022/01/27 00:27:08;;;;;;;4.88;2.03;;;;;;;;;;5030132;28;20469;-78
2022/01/27 00:29:34;;;;;;;10.77;2.30;;;;;;;;;;5014893;28;20029;-78
2022/01/27 00:32:00;;;;;;;8.43;2.30;;;;;;;;;;5045971;28;20025;-75
2022/01/27 00:34:27;;;;;;;5.40;2.00;;;;;;;;;;5012982;28;20022;-75
2022/01/27 00:36:54;;;;;;;5.20;2.13;;;;;;;;;;5012650;28;20017;-75
2022/01/27 00:39:20;;;;;;;7.50;2.38;;;;;;;;;;5030129;28;20117;-79
2022/01/27 00:42:11;;;;;;;8.65;2.95;;;;;;;;;;5022851;28;20479;-79
2022/01/27 00:44:37;;;;;;;8.10;2.58;;;;;;;;;;5029970;28;20029;-79
2022/01/27 00:47:03;;;;;;;7.55;2.65;;;;;;;;;;5024316;28;20026;-79
2022/01/27 00:49:30;;;;;;;9.52;2.88;;;;;;;;;;5023384;28;20476;-74
2022/01/27 00:51:57;;;;;;;10.05;3.38;;;;;;;;;;5021004;28;20025;-74
2022/01/27 00:54:27;;;;;;;9.60;3.65;;;;;;;;;;5016375;28;20036;-75
2022/01/27 00:57:13;;;;;;;12.60;4.05;;;;;;;;;;5019642;28;20389;-76
2022/01/27 01:05:04;;;;;;;18.38;5.07;;;;;;;;;;5021630;28;20052;-75
2022/01/27 01:07:35;;;;;;;10.75;4.05;;;;;;;;;;5012063;28;20037;-78
2022/01/27 01:15:51;;;;;;;12.40;4.15;;;;;;;;;;5014402;28;20037;-78
2022/01/27 01:21:03;;;;;;;12.50;4.20;;;;;;;;;;4999871;28;20128;-78
2022/01/27 01:29:28;;;;;;;20.70;4.60;;;;;;;;;;5013840;28;20113;-78
2022/01/27 01:34:29;;;;;;;7.70;3.10;;;;;;;;;;5017270;28;20030;-78
2022/01/27 01:37:00;;;;;;;13.38;3.78;;;;;;;;;;5019727;28;20018;-74
2022/01/27 01:39:31;;;;;;;9.40;3.47;;;;;;;;;;5028227;28;20124;-74
2022/01/27 01:42:00;;;;;;;9.93;3.78;;;;;;;;;;5027886;28;20037;-74
2022/01/27 01:44:27;;;;;;;14.85;4.72;;;;;;;;;;5011353;28;20049;-74
2022/01/27 01:46:54;;;;;;;19.15;5.22;;;;;;;;;;5008591;28;20028;-74
2022/01/27 01:49:22;;;;;;;16.98;5.88;;;;;;;;;;5021117;28;20022;-74
2022/01/27 01:51:50;;;;;;;15.05;5.47;;;;;;;;;;5025270;28;20076;-74
2022/01/27 01:54:17;;;;;;;22.77;5.88;;;;;;;;;;5017723;28;20080;-77
2022/01/27 01:56:52;;;;;;;20.90;7.45;;;;;;;;;;5022472;28;20041;-77
2022/01/27 01:59:19;;;;;;;24.15;10.30;;;;;;;;;;5017848;28;20464;-78
2022/01/27 02:01:46;;;;;;;22.55;8.52;;;;;;;;;;5024515;28;20058;-77
2022/01/27 02:04:27;;;;;;;19.73;7.72;;;;;;;;;;5012834;28;20072;-78
2022/01/27 02:07:00;;;;;;;19.02;6.97;;;;;;;;;;5022455;28;20029;-77
2022/01/27 02:20:15;;;;;;;23.23;10.50;;;;;;;;;;5008648;28;20088;-77
2022/01/27 02:22:41;;;;;;;26.35;9.70;;;;;;;;;;5003039;28;20043;-77
2022/01/27 02:25:09;;;;;;;19.80;7.60;;;;;;;;;;5034503;28;20025;-77
2022/01/27 02:27:35;;;;;;;20.83;6.85;;;;;;;;;;5012033;28;20113;-77
2022/01/27 02:30:04;;;;;;;21.38;7.45;;;;;;;;;;5012497;28;20096;-78
2022/01/27 02:32:31;;;;;;;19.75;7.93;;;;;;;;;;5007675;28;20378;-78
2022/01/27 02:34:57;;;;;;;19.77;7.57;;;;;;;;;;5009180;28;20026;-77
2022/01/27 02:37:24;;;;;;;21.88;8.80;;;;;;;;;;5006506;28;20026;-78
2022/01/27 02:39:54;;;;;;;30.23;10.30;;;;;;;;;;5009314;28;20441;-77
2022/01/27 02:42:31;;;;;;;35.75;11.88;;;;;;;;;;5010752;28;20026;-78
2022/01/27 02:45:04;;;;;;;31.45;11.80;;;;;;;;;;5002235;28;20037;-78
2022/01/27 02:47:30;;;;;;;38.45;13.68;;;;;;;;;;5011795;28;20049;-78
2022/01/27 02:49:57;;;;;;;32.80;11.88;;;;;;;;;;5009694;28;20101;-78
2022/01/27 02:52:23;;;;;;;40.95;12.23;;;;;;;;;;5015413;28;20040;-78
2022/01/27 02:54:52;;;;;;;27.52;10.00;;;;;;;;;;5010060;28;20040;-78
2022/01/27 02:57:19;;;;;;;34.60;10.82;;;;;;;;;;5010706;28;20029;-78
2022/01/27 02:59:49;;;;;;;34.15;10.45;;;;;;;;;;5026234;28;20388;-78
2022/01/27 03:02:16;;;;;;;22.92;8.95;;;;;;;;;;5001328;28;20084;-78
2022/01/27 03:04:43;;;;;;;19.25;8.13;;;;;;;;;;5011078;28;20436;-78
2022/01/27 03:07:10;;;;;;;22.50;8.73;;;;;;;;;;5010332;28;21636;-78
2022/01/27 03:09:37;;;;;;;25.98;8.07;;;;;;;;;;5011083;28;20030;-78
2022/01/27 03:12:07;;;;;;;25.15;8.45;;;;;;;;;;5025668;28;20153;-78
2022/01/27 03:14:34;;;;;;;27.30;10.43;;;;;;;;;;5027186;28;20058;-78
2022/01/27 03:17:04;;;;;;;26.67;9.98;;;;;;;;;;5010493;28;20030;-78
2022/01/27 03:19:31;;;;;;;27.30;10.48;;;;;;;;;;5025228;28;20026;-78
2022/01/27 03:22:02;;;;;;;34.30;14.02;;;;;;;;;;5010583;28;20502;-78
2022/01/27 03:24:31;;;;;;;33.92;11.75;;;;;;;;;;5008010;28;20039;-79
2022/01/27 03:26:58;;;;;;;25.58;11.70;;;;;;;;;;5026924;28;20461;-78
2022/01/27 03:29:26;;;;;;;31.83;11.93;;;;;;;;;;5010285;28;20030;-79
2022/01/27 03:31:52;;;;;;;30.30;14.30;;;;;;;;;;5022536;28;20030;-80
2022/01/27 03:34:19;;;;;;;35.13;14.77;;;;;;;;;;5013942;28;20477;-79
2022/01/27 03:36:48;;;;;;;34.55;15.80;;;;;;;;;;5009984;28;20544;-78
2022/01/27 03:39:19;;;;;;;44.83;17.27;;;;;;;;;;5015485;28;20117;-77
2022/01/27 03:41:50;;;;;;;39.08;16.40;;;;;;;;;;5030128;28;20060;-77
2022/01/27 03:44:16;;;;;;;48.25;18.00;;;;;;;;;;5030351;28;20087;-78
2022/01/27 03:46:45;;;;;;;41.15;17.92;;;;;;;;;;5027893;28;20022;-79
2022/01/27 03:49:12;;;;;;;51.17;19.40;;;;;;;;;;5030373;28;20026;-78
2022/01/27 03:51:39;;;;;;;49.10;19.17;;;;;;;;;;5014793;28;20030;-78
2022/01/27 03:54:06;;;;;;;40.25;15.88;;;;;;;;;;5007299;28;20104;-78
2022/01/27 03:56:32;;;;;;;40.38;15.60;;;;;;;;;;5030138;28;20507;-78
2022/01/27 03:58:59;;;;;;;39.70;15.48;;;;;;;;;;5013962;28;20033;-79
2022/01/27 04:01:25;;;;;;;35.33;14.95;;;;;;;;;;5013803;28;20053;-79
2022/01/27 04:03:56;;;;;;;38.83;15.38;;;;;;;;;;5014993;28;20022;-79
2022/01/27 04:06:38;;;;;;;32.22;12.18;;;;;;;;;;5012689;28;20367;-79
2022/01/27 04:09:05;;;;;;;37.35;14.25;;;;;;;;;;5030255;28;20487;-79
2022/01/27 04:11:32;;;;;;;44.72;20.55;;;;;;;;;;5037926;28;20054;-81
2022/01/27 04:13:58;;;;;;;48.58;21.02;;;;;;;;;;5013352;28;20026;-80
2022/01/27 04:16:25;;;;;;;44.75;16.95;;;;;;;;;;5013479;28;20025;-80
2022/01/27 04:18:52;;;;;;;38.75;16.15;;;;;;;;;;5030020;28;20017;-82
2022/01/27 04:21:18;;;;;;;36.20;13.03;;;;;;;;;;5013440;28;20042;-80
2022/01/27 04:23:45;;;;;;;34.85;14.02;;;;;;;;;;5010136;28;20058;-80
2022/01/27 04:26:17;;;;;;;26.85;10.90;;;;;;;;;;5020872;28;20018;-79
2022/01/27 04:28:45;;;;;;;27.10;9.32;;;;;;;;;;5044889;28;20026;-80
2022/01/27 04:31:16;;;;;;;20.88;7.80;;;;;;;;;;5001368;28;20033;-80
2022/01/27 04:33:43;;;;;;;27.35;9.05;;;;;;;;;;5028002;28;20036;-80
2022/01/27 04:36:25;;;;;;;23.02;8.80;;;;;;;;;;5012187;28;20057;-79
2022/01/27 04:39:05;;;;;;;27.50;9.27;;;;;;;;;;5034068;28;20113;-80
2022/01/27 04:41:47;;;;;;;25.85;9.02;;;;;;;;;;5017274;28;20499;-80
2022/01/27 04:44:23;;;;;;;19.73;8.02;;;;;;;;;;5011921;28;20496;-80
2022/01/27 04:47:27;;;;;;;12.25;5.38;;;;;;;;;;5015158;28;20026;-80
2022/01/27 04:49:53;;;;;;;12.52;4.57;;;;;;;;;;5013633;28;20105;-79
2022/01/27 04:52:22;;;;;;;19.75;5.35;;;;;;;;;;5001385;28;20054;-80
2022/01/27 04:55:04;;;;;;;21.80;6.15;;;;;;;;;;5019291;28;20026;-80
2022/01/27 04:57:31;;;;;;;24.77;6.35;;;;;;;;;;5006601;28;20032;-80
2022/01/27 04:59:58;;;;;;;29.65;7.57;;;;;;;;;;5018133;28;20026;-80
2022/01/27 05:02:42;;;;;;;31.20;8.35;;;;;;;;;;5025709;28;20036;-80
2022/01/27 05:05:11;;;;;;;26.50;8.18;;;;;;;;;;5025481;28;20096;-80
2022/01/27 05:07:38;;;;;;;24.52;8.30;;;;;;;;;;5011593;28;20022;-80
2022/01/27 05:10:12;;;;;;;17.90;6.53;;;;;;;;;;5051036;28;20029;-80
2022/01/27 05:12:48;;;;;;;22.02;7.15;;;;;;;;;;5051435;28;20380;-80
2022/01/27 05:15:30;;;;;;;25.33;8.70;;;;;;;;;;5039074;28;20083;-80
2022/01/27 05:17:57;;;;;;;34.28;10.30;;;;;;;;;;5051163;28;20391;-80
2022/01/27 05:20:24;;;;;;;25.30;8.98;;;;;;;;;;5047757;28;20051;-80
2022/01/27 05:22:53;;;;;;;31.42;8.98;;;;;;;;;;5034459;28;20033;-80
2022/01/27 05:25:19;;;;;;;28.10;9.10;;;;;;;;;;5040433;28;20423;-80
2022/01/27 05:27:49;;;;;;;25.25;9.10;;;;;;;;;;5046620;28;20036;-80
2022/01/27 05:30:15;;;;;;;34.80;9.77;;;;;;;;;;5050736;28;20468;-80
2022/01/27 05:32:50;;;;;;;27.98;9.65;;;;;;;;;;5034846;28;20448;-82
2022/01/27 05:35:16;;;;;;;29.58;9.38;;;;;;;;;;5048850;28;20037;-83
2022/01/27 05:38:10;;;;;;;33.17;9.73;;;;;;;;;;5051181;28;20028;-82
2022/01/27 05:40:36;;;;;;;30.67;9.55;;;;;;;;;;5039055;28;20781;-81
2022/01/27 05:43:04;;;;;;;24.42;7.50;;;;;;;;;;5011930;28;20500;-82
2022/01/27 05:45:30;;;;;;;30.13;7.93;;;;;;;;;;5011225;28;20076;-81
2022/01/27 05:48:18;;;;;;;28.92;7.35;;;;;;;;;;5011839;28;20030;-81
2022/01/27 05:50:45;;;;;;;33.22;7.70;;;;;;;;;;4994045;28;20050;-81
2022/01/27 05:53:11;;;;;;;24.67;7.80;;;;;;;;;;5003746;28;20022;-81
2022/01/27 05:55:41;;;;;;;33.30;8.13;;;;;;;;;;5028838;28;20030;-81
2022/01/27 05:58:08;;;;;;;27.70;6.95;;;;;;;;;;5012030;28;20515;-81
2022/01/27 06:00:46;;;;;;;28.52;8.25;;;;;;;;;;5004146;28;20025;-81
2022/01/27 06:03:12;;;;;;;23.05;6.22;;;;;;;;;;5028671;28;20030;-81
2022/01/27 06:05:41;;;;;;;23.45;6.75;;;;;;;;;;5026237;28;20046;-81
2022/01/27 06:08:13;;;;;;;17.83;7.15;;;;;;;;;;5027788;28;20388;-81
2022/01/27 06:10:39;;;;;;;20.30;7.10;;;;;;;;;;5028441;28;20120;-81
2022/01/27 06:13:06;;;;;;;23.85;7.13;;;;;;;;;;5028272;28;20516;-81
2022/01/27 06:15:33;;;;;;;25.15;7.55;;;;;;;;;;5011344;28;20061;-79
2022/01/27 06:18:00;;;;;;;25.00;7.05;;;;;;;;;;5025121;28;20388;-79
2022/01/27 06:20:29;;;;;;;20.33;6.82;;;;;;;;;;5025528;28;20399;-79
2022/01/27 06:22:58;;;;;;;32.72;9.00;;;;;;;;;;5007730;28;20087;-79
2022/01/27 06:25:25;;;;;;;22.52;7.82;;;;;;;;;;5014565;28;20121;-79
2022/01/27 06:28:00;;;;;;;28.13;8.50;;;;;;;;;;5007526;28;20493;-80
2022/01/27 06:30:27;;;;;;;27.08;7.65;;;;;;;;;;5003347;28;20084;-80
2022/01/27 06:33:19;;;;;;;18.77;7.25;;;;;;;;;;5011854;28;20030;-81
2022/01/27 06:35:46;;;;;;;34.53;6.20;;;;;;;;;;5002041;28;20036;-80
2022/01/27 06:38:17;;;;;;;19.10;6.30;;;;;;;;;;5014195;28;20096;-80
2022/01/27 06:40:44;;;;;;;22.88;6.68;;;;;;;;;;5013122;28;20022;-80
2022/01/27 06:43:14;;;;;;;20.52;6.25;;;;;;;;;;5014857;28;20053;-81
2022/01/27 06:45:42;;;;;;;22.95;7.35;;;;;;;;;;5044673;28;20025;-80
2022/01/27 06:48:08;;;;;;;26.63;7.70;;;;;;;;;;5011043;28;20022;-80
2022/01/27 06:50:38;;;;;;;24.17;7.28;;;;;;;;;;5011842;28;20033;-80
2022/01/27 06:53:04;;;;;;;17.60;6.43;;;;;;;;;;5011837;28;20477;-81
2022/01/27 06:55:33;;;;;;;16.67;6.70;;;;;;;;;;5011375;28;20084;-80
2022/01/27 06:57:59;;;;;;;21.15;6.38;;;;;;;;;;5016805;28;20539;-80
2022/01/27 07:00:35;;;;;;;17.90;6.35;;;;;;;;;;5013453;28;20026;-81
2022/01/27 07:03:01;;;;;;;20.75;6.18;;;;;;;;;;5016095;28;20711;-81
2022/01/27 07:05:31;;;;;;;18.70;6.65;;;;;;;;;;5036905;28;20485;-81
2022/01/27 07:07:59;;;;;;;19.00;6.50;;;;;;;;;;5023725;28;20080;-80
2022/01/27 07:10:25;;;;;;;18.70;6.43;;;;;;;;;;5015869;28;20018;-81
2022/01/27 07:12:51;;;;;;;13.48;5.45;;;;;;;;;;5024909;28;20030;-81
2022/01/27 07:15:18;;;;;;;12.68;5.07;;;;;;;;;;5017127;28;20481;-81
2022/01/27 07:17:45;;;;;;;14.38;5.68;;;;;;;;;;5019941;28;20030;-81
2022/01/27 07:20:12;;;;;;;20.33;4.72;;;;;;;;;;5010994;28;20040;-81
2022/01/27 07:22:40;;;;;;;15.05;5.30;;;;;;;;;;5026113;28;20030;-81
2022/01/27 07:25:08;;;;;;;20.25;5.25;;;;;;;;;;5031598;28;20631;-80
2022/01/27 07:27:36;;;;;;;19.40;5.40;;;;;;;;;;5013847;28;20022;-80
2022/01/27 07:30:03;;;;;;;21.40;4.53;;;;;;;;;;5030409;28;20476;-80
2022/01/27 07:32:30;;;;;;;11.05;4.18;;;;;;;;;;5014045;28;20073;-81
2022/01/27 07:34:57;;;;;;;12.95;4.28;;;;;;;;;;5031115;28;20032;-81
2022/01/27 07:37:24;;;;;;;23.20;5.15;;;;;;;;;;5015820;28;20522;-81
2022/01/27 07:39:51;;;;;;;10.27;4.78;;;;;;;;;;5017785;28;20749;-81
2022/01/27 07:42:21;;;;;;;12.80;5.57;;;;;;;;;;5038641;28;20026;-81
2022/01/27 07:44:48;;;;;;;12.38;5.32;;;;;;;;;;5029242;28;20057;-81
2022/01/27 07:47:16;;;;;;;11.93;4.35;;;;;;;;;;5029471;28;20022;-81
2022/01/27 07:49:43;;;;;;;14.02;5.03;;;;;;;;;;5007761;28;20101;-81
2022/01/27 07:52:12;;;;;;;11.13;4.57;;;;;;;;;;5029754;28;20033;-81
2022/01/27 07:54:39;;;;;;;12.23;4.03;;;;;;;;;;5017147;28;20424;-81
2022/01/27 07:57:06;;;;;;;19.15;5.65;;;;;;;;;;5014785;28;20026;-81
2022/01/27 07:59:33;;;;;;;14.52;4.70;;;;;;;;;;5017187;28;20022;-81
2022/01/27 08:02:01;;;;;;;8.27;2.83;;;;;;;;;;5038336;28;20030;-81
2022/01/27 08:04:31;;;;;;;13.50;3.63;;;;;;;;;;5029598;28;20028;-81
2022/01/27 08:07:00;;;;;;;14.80;3.30;;;;;;;;;;5029854;28;20034;-81
2022/01/27 08:09:27;;;;;;;8.65;3.30;;;;;;;;;;5010004;28;20029;-81
2022/01/27 08:11:53;;;;;;;12.02;4.43;;;;;;;;;;5011825;28;20037;-81
2022/01/27 08:14:20;;;;;;;14.80;4.13;;;;;;;;;;5015812;28;20104;-81
2022/01/27 08:16:46;;;;;;;10.93;4.10;;;;;;;;;;5015903;28;20025;-81
2022/01/27 08:19:13;;;;;;;13.88;4.25;;;;;;;;;;5024716;28;20030;-81
2022/01/27 08:21:40;;;;;;;12.38;4.25;;;;;;;;;;5025083;28;20049;-81
2022/01/27 08:24:07;;;;;;;16.77;4.70;;;;;;;;;;5011451;28;20643;-80
2022/01/27 08:26:39;;;;;;;8.80;3.90;;;;;;;;;;5029824;28;20658;-81
2022/01/27 08:31:55;;;;;;;15.93;5.32;;;;;;;;;;5022643;28;20034;-81
2022/01/27 08:34:34;;;;;;;13.18;5.18;;;;;;;;;;5012897;28;20432;-81
2022/01/27 08:37:18;;;;;;;10.07;4.32;;;;;;;;;;5016901;28;20030;-81
2022/01/27 08:39:46;;;;;;;13.63;4.85;;;;;;;;;;5030005;28;20026;-81
2022/01/27 08:42:13;;;;;;;12.38;4.88;;;;;;;;;;5014148;28;20080;-81
2022/01/27 08:44:40;;;;;;;18.63;4.78;;;;;;;;;;5012325;28;20030;-82
2022/01/27 08:47:07;;;;;;;14.55;5.45;;;;;;;;;;5024823;28;20030;-81
2022/01/27 08:49:35;;;;;;;13.25;4.93;;;;;;;;;;5028574;28;20030;-82
2022/01/27 08:52:02;;;;;;;11.55;3.83;;;;;;;;;;5011862;28;20053;-81
2022/01/27 08:54:30;;;;;;;13.90;4.90;;;;;;;;;;5038624;28;20448;-81
2022/01/27 08:56:56;;;;;;;11.85;4.55;;;;;;;;;;5028693;28;20022;-81
2022/01/27 08:59:23;;;;;;;11.98;4.50;;;;;;;;;;5021293;28;20033;-81
2022/01/27 09:01:49;;;;;;;11.82;4.38;;;;;;;;;;5025850;28;20034;-81
2022/01/27 09:04:15;;;;;;;11.20;4.80;;;;;;;;;;5042834;28;20388;-82
2022/01/27 09:06:45;;;;;;;10.70;4.82;;;;;;;;;;5014416;28;20061;-82
2022/01/27 09:09:11;;;;;;;10.23;3.92;;;;;;;;;;5015513;28;20032;-82
2022/01/27 09:11:46;;;;;;;11.48;3.92;;;;;;;;;;5032739;28;20495;-81
2022/01/27 09:14:16;;;;;;;11.52;3.67;;;;;;;;;;5022377;28;20069;-81
2022/01/27 09:16:48;;;;;;;9.02;3.00;;;;;;;;;;5012451;28;20113;-82
2022/01/27 09:19:17;;;;;;;8.55;3.10;;;;;;;;;;5012627;28;20474;-82
2022/01/27 09:21:47;;;;;;;7.45;2.17;;;;;;;;;;5015641;28;20033;-82
2022/01/27 09:24:16;;;;;;;9.85;2.65;;;;;;;;;;5012903;28;20473;-82
2022/01/27 09:29:14;;;;;;;8.13;2.67;;;;;;;;;;5004541;28;20025;-82
2022/01/27 09:31:44;;;;;;;7.35;2.85;;;;;;;;;;5029062;28;20465;-82
2022/01/27 09:34:11;;;;;;;9.35;2.63;;;;;;;;;;5012253;28;20469;-82
2022/01/27 09:36:42;;;;;;;10.82;3.65;;;;;;;;;;5028908;28;20026;-82
2022/01/27 09:39:12;;;;;;;7.43;2.78;;;;;;;;;;5013708;28;20479;-82
2022/01/27 09:42:03;;;;;;;7.35;2.60;;;;;;;;;;5015139;28;20033;-82
2022/01/27 09:44:37;;;;;;;10.02;3.45;;;;;;;;;;5002437;28;20073;-81
2022/01/27 09:47:06;;;;;;;6.95;2.45;;;;;;;;;;5010987;28;20057;-82
2022/01/27 09:49:40;;;;;;;6.72;2.70;;;;;;;;;;4995924;28;20038;-82
2022/01/27 09:52:06;;;;;;;10.02;2.80;;;;;;;;;;5016016;28;20652;-82
2022/01/27 09:54:45;;;;;;;28.48;12.63;;;;;;;;;;5023590;28;20030;-81
2022/01/27 09:57:11;;;;;;;49.03;19.50;;;;;;;;;;5013206;28;20018;-82
2022/01/27 09:59:38;;;;;;;49.45;20.70;;;;;;;;;;5012341;28;20022;-82
2022/01/27 10:02:14;;;;;;;74.43;32.17;;;;;;;;;;5013206;28;20051;-82
2022/01/27 10:04:44;;;;;;;78.22;32.38;;;;;;;;;;4993918;28;20037;-82
2022/01/27 10:07:15;;;;;;;79.88;32.38;;;;;;;;;;5023495;28;20381;-81
2022/01/27 10:09:46;;;;;;;82.47;31.45;;;;;;;;;;5023592;28;20033;-82
2022/01/27 10:12:12;;;;;;;83.78;32.63;;;;;;;;;;5011334;28;20401;-82
2022/01/27 10:14:39;;;;;;;75.85;33.35;;;;;;;;;;5009998;28;20044;-81
2022/01/27 10:17:09;;;;;;;73.88;31.83;;;;;;;;;;5007479;28;20485;-87
2022/01/27 10:19:38;;;;;;;76.63;32.25;;;;;;;;;;5022073;28;20030;-87
2022/01/27 10:22:17;;;;;;;76.82;31.13;;;;;;;;;;5008268;28;20049;-86
2022/01/27 10:24:44;;;;;;;72.18;30.40;;;;;;;;;;5037165;28;20036;-87
2022/01/27 10:27:46;;;;;;;70.43;31.13;;;;;;;;;;5030227;28;20376;-87
2022/01/27 10:33:19;;;;;;;66.97;30.98;;;;;;;;;;5007640;28;20048;-87
2022/01/27 10:35:45;;;;;;;76.43;30.88;;;;;;;;;;5016775;28;20029;-88
2022/01/27 10:38:14;;;;;;;79.53;29.85;;;;;;;;;;5016275;28;20026;-86
2022/01/27 10:40:44;;;;;;;75.95;31.52;;;;;;;;;;5032596;28;20041;-87
2022/01/27 10:43:17;;;;;;;76.47;31.05;;;;;;;;;;5032450;28;20117;-87
2022/01/27 10:46:05;;;;;;;79.95;31.67;;;;;;;;;;5032358;28;20025;-87
2022/01/27 10:48:36;;;;;;;79.00;33.83;;;;;;;;;;5048889;28;20108;-86
2022/01/27 10:51:08;;;;;;;72.90;30.52;;;;;;;;;;5020632;28;20033;-87
2022/01/27 10:54:20;;;;;;;69.22;29.77;;;;;;;;;;5015778;28;20116;-87
2022/01/27 10:56:47;;;;;;;73.28;30.95;;;;;;;;;;5031950;28;20022;-85
2022/01/27 10:59:20;;;;;;;73.00;32.15;;;;;;;;;;5015148;28;20029;-86
2022/01/27 11:01:50;;;;;;;93.28;33.90;;;;;;;;;;5030270;28;20021;-85
2022/01/27 11:04:17;;;;;;;75.93;32.55;;;;;;;;;;5047624;28;20037;-85
2022/01/27 11:06:55;;;;;;;74.40;32.17;;;;;;;;;;5030922;28;20034;-86
2022/01/27 11:09:22;;;;;;;70.00;31.10;;;;;;;;;;5019588;28;20018;-87
2022/01/27 11:11:49;;;;;;;74.65;30.05;;;;;;;;;;5011533;28;20061;-86
2022/01/27 11:14:16;;;;;;;84.13;34.75;;;;;;;;;;5030393;28;20030;-86
2022/01/27 11:16:44;;;;;;;87.35;33.80;;;;;;;;;;5037020;28;20021;-86
2022/01/27 11:21:52;;;;;;;93.97;36.05;;;;;;;;;;5018305;28;20075;-86
2022/01/27 11:24:27;;;;;;;84.30;34.75;;;;;;;;;;5047793;28;20029;-86
2022/01/27 11:27:06;;;;;;;96.25;37.83;;;;;;;;;;5010166;28;20385;-86
2022/01/27 11:29:48;;;;;;;93.97;38.78;;;;;;;;;;5048184;28;20021;-85
2022/01/27 11:32:22;;;;;;;92.53;40.10;;;;;;;;;;5028556;28;20125;-86
2022/01/27 11:34:56;;;;;;;107.65;40.50;;;;;;;;;;5014602;28;20057;-85
2022/01/27 11:37:35;;;;;;;100.28;40.25;;;;;;;;;;5012655;28;20030;-86
2022/01/27 11:40:07;;;;;;;103.63;38.95;;;;;;;;;;5015900;28;20030;-85
2022/01/27 11:42:37;;;;;;;89.95;36.38;;;;;;;;;;5005380;28;20054;-85
2022/01/27 11:45:22;;;;;;;93.05;41.33;;;;;;;;;;5015663;28;20417;-85
2022/01/27 11:48:15;;;;;;;105.78;46.80;;;;;;;;;;5013738;28;20032;-85
2022/01/27 11:50:55;;;;;;;122.68;49.60;;;;;;;;;;5007438;28;20044;-85
2022/01/27 11:53:39;;;;;;;118.82;46.53;;;;;;;;;;5027336;28;20492;-85
2022/01/27 11:56:33;;;;;;;112.35;46.78;;;;;;;;;;5033312;28;20116;-84
2022/01/27 11:59:03;;;;;;;110.47;48.35;;;;;;;;;;5041802;28;20481;-85
2022/01/27 12:01:30;;;;;;;128.00;52.33;;;;;;;;;;5029214;28;20534;-85
2022/01/27 12:04:07;;;;;;;148.35;57.20;;;;;;;;;;5017550;28;20066;-85
2022/01/27 12:06:34;;;;;;;146.75;58.00;;;;;;;;;;5013334;28;20381;-84
2022/01/27 12:09:19;;;;;;;144.48;54.47;;;;;;;;;;5021978;28;20034;-84
2022/01/27 12:12:03;;;;;;;145.65;57.08;;;;;;;;;;5012465;28;20030;-85
2022/01/27 12:14:35;;;;;;;144.98;57.22;;;;;;;;;;5013578;28;20803;-84
2022/01/27 12:17:08;;;;;;;130.73;55.63;;;;;;;;;;5007642;28;20022;-85
2022/01/27 12:22:33;;;;;;;105.57;44.53;;;;;;;;;;5012060;28;20037;-84
2022/01/27 12:25:02;;;;;;;103.72;45.30;;;;;;;;;;5046916;28;20026;-84
2022/01/27 12:27:29;;;;;;;106.18;43.28;;;;;;;;;;5046695;28;20030;-85
2022/01/27 12:30:03;;;;;;;96.22;43.65;;;;;;;;;;5029855;28;20061;-84
2022/01/27 12:32:31;;;;;;;113.78;49.03;;;;;;;;;;5017603;28;20464;-76
2022/01/27 12:34:58;;;;;;;122.13;50.13;;;;;;;;;;5012784;28;20026;-77
2022/01/27 12:37:35;;;;;;;116.47;47.95;;;;;;;;;;5010293;28;20031;-75
2022/01/27 12:40:18;;;;;;;107.88;43.95;;;;;;;;;;5027486;28;20030;-75
2022/01/27 12:42:58;;;;;;;101.55;44.00;;;;;;;;;;5029064;28;20026;-75
2022/01/27 12:45:29;;;;;;;96.38;42.13;;;;;;;;;;5023876;28;20461;-75
2022/01/27 12:47:56;;;;;;;93.38;39.67;;;;;;;;;;5009450;28;20473;-76
2022/01/27 12:50:24;;;;;;;92.55;39.67;;;;;;;;;;5028247;28;20080;-76
2022/01/27 12:52:53;;;;;;;86.93;36.28;;;;;;;;;;5011455;28;20034;-76
2022/01/27 12:55:25;;;;;;;88.70;39.33;;;;;;;;;;5012318;28;20487;-76
2022/01/27 12:57:57;;;;;;;97.13;40.85;;;;;;;;;;5044270;28;20096;-76
2022/01/27 13:00:23;;;;;;;96.60;40.17;;;;;;;;;;5010097;28;20049;-77
2022/01/27 13:02:50;;;;;;;98.97;44.15;;;;;;;;;;5013276;28;20034;-77
2022/01/27 13:05:16;;;;;;;121.07;49.97;;;;;;;;;;5013227;28;20038;-77
2022/01/27 13:07:47;;;;;;;109.63;47.67;;;;;;;;;;5012119;28;20063;-77
2022/01/27 13:10:18;;;;;;;121.13;48.10;;;;;;;;;;5016703;28;20024;-77
2022/01/27 13:12:50;;;;;;;114.65;47.13;;;;;;;;;;5040327;28;20034;-77
2022/01/27 13:15:18;;;;;;;112.88;48.17;;;;;;;;;;5013049;28;20033;-77
2022/01/27 13:20:13;;;;;;;110.63;47.72;;;;;;;;;;5023169;28;20045;-77
2022/01/27 13:22:51;;;;;;;114.88;47.28;;;;;;;;;;5013586;28;20041;-77
2022/01/27 13:25:20;;;;;;;97.95;44.08;;;;;;;;;;5013771;28;20018;-78
2022/01/27 13:28:24;;;;;;;114.68;46.60;;;;;;;;;;5033403;28;20032;-78
2022/01/27 13:30:53;;;;;;;123.00;48.97;;;;;;;;;;4960110;28;20059;-78
2022/01/27 13:33:21;;;;;;;123.53;50.35;;;;;;;;;;5000059;28;20084;-78
2022/01/27 13:35:48;;;;;;;128.48;48.70;;;;;;;;;;5022704;28;20026;-77
2022/01/27 13:38:23;;;;;;;121.38;50.85;;;;;;;;;;5012083;28;20034;-78
2022/01/27 13:41:18;;;;;;;117.55;49.13;;;;;;;;;;5020486;28;20124;-78
2022/01/27 13:44:05;;;;;;;108.97;47.47;;;;;;;;;;5028308;28;20026;-77
2022/01/27 13:46:41;;;;;;;118.28;49.33;;;;;;;;;;5011713;28;20033;-77
2022/01/27 13:49:19;;;;;;;118.15;48.78;;;;;;;;;;5039406;28;20056;-77
2022/01/27 13:51:50;;;;;;;114.03;46.38;;;;;;;;;;5014085;28;20487;-77
2022/01/27 13:54:21;;;;;;;109.70;47.55;;;;;;;;;;5042761;28;20117;-77
2022/01/27 13:56:52;;;;;;;110.57;46.40;;;;;;;;;;5011221;28;20026;-77
2022/01/27 13:59:27;;;;;;;114.00;45.63;;;;;;;;;;5028337;28;20026;-77
2022/01/27 14:02:13;;;;;;;104.78;42.85;;;;;;;;;;5010915;28;20033;-78
2022/01/27 14:04:47;;;;;;;103.70;41.63;;;;;;;;;;5026011;28;20034;-78
2022/01/27 14:07:24;;;;;;;104.32;43.63;;;;;;;;;;5015137;28;20064;-77
2022/01/27 14:09:52;;;;;;;91.68;39.75;;;;;;;;;;5030775;28;20038;-77
2022/01/27 14:12:26;;;;;;;94.82;37.58;;;;;;;;;;5011568;28;20026;-77
2022/01/27 14:14:53;;;;;;;94.57;38.03;;;;;;;;;;5024171;28;20116;-77
2022/01/27 14:17:21;;;;;;;90.47;36.30;;;;;;;;;;5018603;28;20037;-77
2022/01/27 14:19:48;;;;;;;98.05;39.38;;;;;;;;;;5010674;28;20373;-77
2022/01/27 14:22:16;;;;;;;107.38;41.67;;;;;;;;;;5043297;28;20520;-77
2022/01/27 14:25:00;;;;;;;96.45;38.75;;;;;;;;;;5021609;28;20048;-77
2022/01/27 14:27:38;;;;;;;95.93;38.03;;;;;;;;;;5043886;28;20388;-77
2022/01/27 14:30:11;;;;;;;93.45;38.00;;;;;;;;;;5042174;28;20018;-77
2022/01/27 14:32:38;;;;;;;96.70;35.58;;;;;;;;;;5027836;28;20497;-77
2022/01/27 14:35:08;;;;;;;95.07;38.15;;;;;;;;;;5012447;28;20061;-76
2022/01/27 14:37:36;;;;;;;91.65;36.60;;;;;;;;;;5002655;28;20061;-75
2022/01/27 14:40:04;;;;;;;100.72;37.72;;;;;;;;;;5008869;28;20100;-76
2022/01/27 14:42:32;;;;;;;93.82;38.22;;;;;;;;;;5039466;28;20468;-76
2022/01/27 14:45:00;;;;;;;98.03;40.58;;;;;;;;;;5024200;28;20018;-76
2022/01/27 14:47:26;;;;;;;108.55;42.28;;;;;;;;;;5041438;28;20092;-76
2022/01/27 14:49:53;;;;;;;106.97;41.83;;;;;;;;;;5013996;28;20018;-76
2022/01/27 14:52:25;;;;;;;116.30;44.92;;;;;;;;;;5010446;28;20026;-76
2022/01/27 14:54:51;;;;;;;106.82;41.83;;;;;;;;;;5014430;28;20034;-77
2022/01/27 14:57:18;;;;;;;107.47;42.08;;;;;;;;;;5014832;28;20034;-76
2022/01/27 14:59:44;;;;;;;114.13;43.17;;;;;;;;;;5019338;28;20036;-76
2022/01/27 15:02:11;;;;;;;116.18;42.10;;;;;;;;;;5013384;28;20030;-76
2022/01/27 15:04:37;;;;;;;103.93;41.40;;;;;;;;;;5014122;28;20021;-76
2022/01/27 15:07:05;;;;;;;90.78;38.05;;;;;;;;;;5017343;28;20022;-76
2022/01/27 15:09:32;;;;;;;95.22;36.63;;;;;;;;;;5009699;28;20065;-76
2022/01/27 15:11:58;;;;;;;78.60;31.90;;;;;;;;;;5043095;28;20025;-76
2022/01/27 15:19:55;;;;;;;76.13;29.52;;;;;;;;;;5011169;28;20041;-76
2022/01/27 15:22:27;;;;;;;79.25;34.17;;;;;;;;;;5013676;28;20054;-76
2022/01/27 15:24:54;;;;;;;81.15;32.33;;;;;;;;;;5017362;28;21076;-77
2022/01/27 15:27:21;;;;;;;70.57;29.42;;;;;;;;;;5025076;28;20021;-76
2022/01/27 15:29:47;;;;;;;75.28;31.13;;;;;;;;;;5036249;28;20022;-77
2022/01/27 15:32:19;;;;;;;78.40;30.08;;;;;;;;;;5013961;28;20048;-77
2022/01/27 15:34:45;;;;;;;70.22;30.25;;;;;;;;;;5013989;28;20029;-77
2022/01/27 15:37:14;;;;;;;91.97;36.40;;;;;;;;;;5015642;28;20033;-76
2022/01/27 15:39:48;;;;;;;94.05;36.88;;;;;;;;;;5014672;28;20041;-77